Inicio METAR Ruta Wind Satelite

Informe Meteorológico

Fecha: 2024/06/18 20:24:25 Local
2024.06.19 01:24 UTC


Operación:VFR
SKRH 190100Z NIL =

SKRH 182300Z 04008KT 010V080 9999 FEW018CB 30/28 Q1006 RMK CB/S
SKRH 182200Z 04010KT 010V120 9999 FEW018 31/27 Q1006
SKRH 182100Z 03010KT 360V080 9999 FEWO18 31/27 Q1006
SKRH 182000Z 03012KT 360V070 9999 FEW018 31/27 Q1006
SKRH 181900Z 03009KT 360V080 9999 FEW018 31/27 Q1007